Vassouras, Brazil
Current Conditions -  °F | °C
As of 9:00 PM on Friday 28 Nov 2014 (Local Time) from SBPB Reporting Station
Scattered Clouds Scattered Clouds  
Wind Chill: 82°   Ceiling: Unl
Heat Index: 89°   Visibility: 6mi
Dew Point: 75°   Wind: 18mph
Humidity: 79%   Direction: 80°E
Pressure: 29.85"   Gusts: NA
Location:  3.75°S, 42.17°W
Report Text: SBPB 290000Z 08016KT 9999 FEW020 SCT100 28/24 Q1011
Loading
Personal Weather Stations






























Interactive Weather Map New forecast layout! Learn more

10-Day Weather Forecast

Advertisements
Track Severe Weather on mobile